KBPG

Details ICAO KBPG
Name BIG SPRING MCMAHON WRINKLE
Region United States
Timezone America/Chicago (UTC-6.0)
Plans Departing 12
Arriving 10
Stats Elevation 2,573 ft / 784 m (AMSL)
Location 32.211652° -101.521790°
Runways 2
Magnetic Variation 5.921° E
Sunrise 2017-12-15 13:41:16 UTC / 2017-12-15 07:41:16 Local
Sunset 2017-12-15 23:44:16 UTC / 2017-12-15 17:44:16 Local
Advertisement - Login to hide

Runways

ID Width Length Bearing (true) Bearing (mag) Surface Threshold Offset Overrun Length
06 75 ft / 23 m 4,595 ft / 1,401 m 66.78° 60.86° Asphalt 0 ft / 0 m 0 ft / 0 m
17 100 ft / 30 m 8,828 ft / 2,691 m 181.88° 175.96° Asphalt 0 ft / 0 m 1,002 ft / 305 m
24 75 ft / 23 m 4,595 ft / 1,401 m 246.79° 240.87° Asphalt 0 ft / 0 m 0 ft / 0 m
35 100 ft / 30 m 8,828 ft / 2,691 m 1.88° 355.96° Asphalt 0 ft / 0 m 1,007 ft / 307 m

Map

Weather


0- 5 10 15 20 25 30 35+ Temperature / ° C

Clouds and Precipitation
Forecast for 2017-12-15 18:00 UTC. Updated an hour ago

Ground ~20,000 ft ~40,000 ft Winds

METAR

KBPG 151615Z AUTO 22003KT 10SM CLR 04/M03 A3039 RMK AO2 T00431029

TAF

Not found

Frequencies

Recorded 118.02 MHz AWOS 3
Unicom 122.80 MHz CTAF/UNICOM
Warning: Do not use this data for real-world aviation or navigation. No guarantee of current accuracy is given.